createdAt,value
2018-02-04T00:00:45.271Z,25.23
2018-02-04T00:03:13.738Z,21.17
2018-02-04T00:05:43.548Z,17.57
2018-02-04T00:08:11.819Z,17.10
2018-02-04T00:10:41.429Z,27.90
2018-02-04T00:13:10.746Z,24.53
2018-02-04T00:15:39.084Z,25.70
2018-02-04T00:18:07.391Z,27.37
2018-02-04T00:20:35.820Z,13.40
2018-02-04T00:23:04.083Z,14.20
2018-02-04T00:25:35.562Z,21.20
2018-02-04T00:28:03.822Z,8.17
2018-02-04T00:30:32.881Z,11.00
2018-02-04T00:33:01.377Z,17.40
2018-02-04T00:35:30.735Z,21.73
2018-02-04T00:38:01.025Z,17.93
2018-02-04T00:40:29.468Z,21.47
2018-02-04T00:42:57.749Z,29.83
2018-02-04T00:45:26.003Z,32.40
2018-02-04T00:47:54.395Z,28.03
2018-02-04T00:50:22.659Z,24.73
2018-02-04T00:52:50.956Z,30.90
2018-02-04T00:55:19.542Z,20.40
2018-02-04T00:57:47.806Z,27.13
2018-02-04T01:00:16.093Z,27.40
2018-02-04T01:02:44.752Z,8.60
2018-02-04T01:05:13.020Z,26.00
2018-02-04T01:07:41.307Z,26.93
2018-02-04T01:10:09.611Z,27.13
2018-02-04T01:12:37.861Z,23.10
2018-02-04T01:15:06.150Z,21.17
2018-02-04T01:17:34.516Z,23.77
2018-02-04T01:20:04.307Z,21.03
2018-02-04T01:22:32.564Z,11.43
2018-02-04T01:25:00.849Z,25.50
2018-02-04T01:27:29.310Z,8.70
2018-02-04T01:29:57.635Z,20.60
2018-02-04T01:32:25.948Z,28.00
2018-02-04T01:34:54.976Z,21.30
2018-02-04T01:37:23.232Z,25.90
2018-02-04T01:39:52.575Z,18.30
2018-02-04T01:42:20.831Z,16.17
2018-02-04T01:44:49.101Z,37.97
2018-02-04T01:47:17.605Z,27.50
2018-02-04T01:49:45.884Z,39.33
2018-02-04T01:52:18.113Z,19.87
2018-02-04T01:54:46.380Z,25.90
2018-02-04T01:57:16.859Z,24.47
2018-02-04T01:59:45.155Z,26.70
2018-02-04T02:02:13.415Z,26.00
2018-02-04T02:04:41.702Z,26.73
2018-02-04T02:07:10.044Z,8.77
2018-02-04T02:09:39.972Z,27.13
2018-02-04T02:12:08.236Z,29.60
2018-02-04T02:14:36.749Z,30.90
2018-02-04T02:17:06.046Z,30.40
2018-02-04T02:19:34.560Z,24.80
2018-02-04T02:22:03.695Z,25.00
2018-02-04T02:24:31.946Z,29.83
2018-02-04T02:27:00.204Z,24.93
2018-02-04T02:32:10.661Z,33.97
2018-02-04T02:34:38.976Z,26.37
2018-02-04T02:37:07.994Z,29.13
2018-02-04T02:39:37.270Z,38.20
2018-02-04T02:42:05.709Z,23.40
2018-02-04T02:44:33.992Z,24.97
2018-02-04T02:47:02.253Z,26.63
2018-02-04T02:49:30.540Z,32.20
2018-02-04T02:51:58.803Z,27.50
2018-02-04T02:54:27.171Z,43.13
2018-02-04T02:56:55.470Z,36.07
2018-02-04T02:59:23.739Z,28.50
2018-02-04T03:01:52.002Z,38.23
2018-02-04T03:04:20.743Z,26.33
2018-02-04T03:06:49.804Z,31.60
2018-02-04T03:09:18.065Z,28.13
2018-02-04T03:11:46.364Z,27.80
2018-02-04T03:14:14.644Z,33.63
2018-02-04T03:16:44.392Z,25.83
2018-02-04T03:19:13.021Z,30.67
2018-02-04T03:21:44.262Z,31.50
2018-02-04T03:24:12.517Z,26.97
2018-02-04T03:26:40.814Z,27.50
2018-02-04T03:29:09.894Z,29.57
2018-02-04T03:31:38.145Z,30.43
2018-02-04T03:34:07.481Z,19.97
2018-02-04T03:36:35.763Z,24.77
2018-02-04T03:39:04.041Z,25.77
2018-02-04T03:41:33.543Z,20.80
2018-02-04T03:44:02.579Z,33.70
2018-02-04T03:46:31.987Z,35.33
2018-02-04T03:49:01.158Z,34.83
2018-02-04T03:51:29.419Z,33.37
2018-02-04T03:54:00.712Z,36.57
2018-02-04T03:56:29.351Z,38.57
2018-02-04T03:58:57.608Z,34.60
2018-02-04T04:01:25.872Z,31.27
2018-02-04T04:03:54.180Z,30.37
2018-02-04T04:06:23.475Z,27.67
2018-02-04T04:08:51.754Z,27.30
2018-02-04T04:11:20.780Z,26.90
2018-02-04T04:13:49.726Z,28.10
2018-02-04T04:16:17.922Z,28.77
2018-02-04T04:18:46.499Z,29.73
2018-02-04T04:21:14.777Z,23.77
2018-02-04T04:23:44.948Z,25.63
2018-02-04T04:26:13.263Z,22.50
2018-02-04T04:28:41.520Z,24.90
2018-02-04T04:31:12.807Z,23.20
2018-02-04T04:33:41.687Z,22.20
2018-02-04T04:36:09.947Z,20.17
2018-02-04T04:38:38.218Z,23.13
2018-02-04T04:41:06.543Z,24.20
2018-02-04T04:43:36.391Z,22.30
2018-02-04T04:46:04.643Z,26.10
2018-02-04T04:48:32.952Z,16.03
2018-02-04T04:51:01.237Z,20.10
2018-02-04T04:53:29.507Z,22.43
2018-02-04T04:55:59.068Z,16.13
2018-02-04T04:58:27.326Z,26.90
2018-02-04T05:00:55.581Z,17.80
2018-02-04T05:03:23.922Z,31.03
2018-02-04T05:05:52.190Z,25.67
2018-02-04T05:08:22.824Z,30.67
2018-02-04T05:10:51.153Z,40.30
2018-02-04T05:13:21.668Z,27.50
2018-02-04T05:15:49.947Z,28.97
2018-02-04T05:18:18.392Z,33.63
2018-02-04T05:20:46.659Z,37.03
2018-02-04T05:23:14.921Z,39.63
2018-02-04T05:25:44.385Z,34.83
2018-02-04T05:28:12.656Z,31.50
2018-02-04T05:30:40.929Z,40.73
2018-02-04T05:33:11.271Z,35.83
2018-02-04T05:35:39.561Z,31.03
2018-02-04T05:38:07.828Z,29.97
2018-02-04T05:40:36.206Z,33.90
2018-02-04T05:43:04.479Z,29.30
2018-02-04T05:45:34.545Z,41.97
2018-02-04T05:48:03.077Z,32.90
2018-02-04T05:50:33.610Z,36.50
2018-02-04T05:53:01.884Z,31.37
2018-02-04T05:55:30.301Z,29.03
2018-02-04T05:57:59.330Z,28.67
2018-02-04T06:00:27.617Z,29.37
2018-02-04T06:02:55.912Z,28.97
2018-02-04T06:05:24.180Z,27.60
2018-02-04T06:07:52.450Z,33.40
2018-02-04T06:10:21.457Z,35.10
2018-02-04T06:12:49.745Z,28.20
2018-02-04T06:15:18.805Z,32.30
2018-02-04T06:17:47.096Z,26.73
2018-02-04T06:20:15.372Z,32.90
2018-02-04T06:22:45.179Z,25.80
2018-02-04T06:25:13.975Z,21.80
2018-02-04T06:27:42.622Z,20.20
2018-02-04T06:30:10.890Z,15.00
2018-02-04T06:32:39.218Z,27.07
2018-02-04T06:35:08.401Z,21.03
2018-02-04T06:37:36.640Z,9.93
2018-02-04T06:40:04.944Z,15.93
2018-02-04T06:42:33.195Z,14.37
2018-02-04T06:45:01.464Z,18.40
2018-02-04T06:47:30.239Z,13.47
2018-02-04T06:49:59.259Z,12.87
2018-02-04T06:52:27.526Z,17.70
2018-02-04T06:54:56.054Z,13.40
2018-02-04T06:57:24.310Z,13.77
2018-02-04T06:59:54.914Z,13.97
2018-02-04T07:02:24.068Z,17.63
2018-02-04T07:04:52.317Z,15.27
2018-02-04T07:07:20.577Z,15.70
2018-02-04T07:09:49.083Z,11.70
2018-02-04T07:12:17.634Z,17.27
2018-02-04T07:14:45.894Z,16.80
2018-02-04T07:17:14.959Z,17.57
2018-02-04T07:19:43.229Z,14.80
2018-02-04T07:22:11.505Z,14.30
2018-02-04T07:24:39.818Z,14.70
2018-02-04T07:27:08.833Z,9.00
2018-02-04T07:29:37.935Z,15.77
2018-02-04T07:32:06.208Z,12.57
2018-02-04T07:34:34.463Z,14.07
2018-02-04T07:37:02.726Z,10.33
2018-02-04T07:39:31.890Z,11.43
2018-02-04T07:42:00.918Z,17.13
2018-02-04T07:44:29.949Z,14.53
2018-02-04T07:46:58.530Z,12.87
2018-02-04T07:49:27.845Z,15.80
2018-02-04T07:51:56.793Z,15.50
2018-02-04T07:54:26.177Z,20.60
2018-02-04T07:56:54.443Z,15.60
2018-02-04T07:59:22.703Z,14.70
2018-02-04T08:01:54.856Z,13.53
2018-02-04T08:04:23.150Z,19.23
2018-02-04T08:06:51.409Z,16.97
2018-02-04T08:09:19.849Z,17.67
2018-02-04T08:11:48.108Z,14.73
2018-02-04T08:14:17.352Z,15.30
2018-02-04T08:16:46.396Z,15.30
2018-02-04T08:19:14.661Z,14.50
2018-02-04T08:21:42.928Z,17.80
2018-02-04T08:24:11.403Z,19.60
2018-02-04T08:26:42.033Z,14.53
2018-02-04T08:29:10.295Z,15.87
2018-02-04T08:31:40.738Z,16.00
2018-02-04T08:34:09.060Z,16.00
2018-02-04T08:36:38.087Z,16.50
2018-02-04T08:39:06.504Z,15.20
2018-02-04T08:41:34.774Z,24.90
2018-02-04T08:44:03.063Z,20.67
2018-02-04T08:46:31.386Z,18.13
2018-02-04T08:48:59.643Z,12.20
2018-02-04T08:51:28.721Z,26.30
2018-02-04T08:53:58.184Z,21.33
2018-02-04T08:56:26.469Z,23.17
2018-02-04T08:58:54.736Z,22.67
2018-02-04T09:01:23.150Z,24.17
2018-02-04T09:03:51.411Z,21.30
2018-02-04T09:06:19.705Z,18.50
2018-02-04T09:08:48.007Z,21.33
2018-02-04T09:11:16.402Z,24.47
2018-02-04T09:13:44.679Z,25.67
2018-02-04T09:16:14.028Z,19.50
2018-02-04T09:18:43.031Z,21.73
2018-02-04T09:21:11.364Z,18.87
2018-02-04T09:23:39.652Z,31.93
2018-02-04T09:26:07.984Z,15.80
2018-02-04T09:28:38.558Z,19.23
2018-02-04T09:31:06.988Z,21.90
2018-02-04T09:33:36.799Z,24.83
2018-02-04T09:36:05.826Z,24.90
2018-02-04T09:38:34.133Z,21.53
2018-02-04T09:41:02.418Z,25.77
2018-02-04T09:43:31.409Z,22.70
2018-02-04T09:45:59.752Z,23.03
2018-02-04T09:48:28.033Z,25.43
2018-02-04T09:50:56.360Z,14.10
2018-02-04T09:53:25.011Z,21.97
2018-02-04T09:55:54.838Z,11.83
2018-02-04T09:58:23.101Z,23.47
2018-02-04T10:00:51.589Z,24.43
2018-02-04T10:03:19.865Z,14.70
2018-02-04T10:05:48.902Z,22.53
2018-02-04T10:08:17.959Z,21.70
2018-02-04T10:10:46.264Z,17.27
2018-02-04T10:13:15.308Z,22.07
2018-02-04T10:15:43.616Z,15.13
2018-02-04T10:18:14.403Z,17.37
2018-02-04T10:20:42.694Z,24.07
2018-02-04T10:23:11.193Z,18.10
2018-02-04T10:25:39.472Z,10.30
2018-02-04T10:28:07.758Z,18.33
2018-02-04T10:30:38.092Z,16.90
2018-02-04T10:33:06.360Z,19.03
2018-02-04T10:35:34.887Z,15.50
2018-02-04T10:38:03.174Z,20.17
2018-02-04T10:40:31.440Z,25.20
2018-02-04T10:43:00.474Z,15.93
2018-02-04T10:45:28.898Z,20.00
2018-02-04T10:47:57.993Z,18.80
2018-02-04T10:50:26.269Z,22.77
2018-02-04T10:52:54.572Z,20.50
2018-02-04T10:55:23.312Z,18.37
2018-02-04T10:57:51.579Z,20.87
2018-02-04T11:00:19.889Z,15.13
2018-02-04T11:02:48.907Z,19.70
2018-02-04T11:05:17.171Z,17.63
2018-02-04T11:07:48.253Z,23.57
2018-02-04T11:10:16.532Z,24.73
2018-02-04T11:12:44.798Z,24.50
2018-02-04T11:15:13.281Z,21.53
2018-02-04T11:17:41.556Z,24.20
2018-02-04T11:20:11.051Z,14.63
2018-02-04T11:22:39.444Z,21.67
2018-02-04T11:25:07.704Z,20.27
2018-02-04T11:27:35.969Z,18.97
2018-02-04T11:30:05.306Z,20.03
2018-02-04T11:32:33.577Z,18.93
2018-02-04T11:35:01.854Z,12.73
2018-02-04T11:37:30.558Z,20.10
2018-02-04T11:39:58.832Z,15.73
2018-02-04T11:42:27.089Z,15.00
2018-02-04T11:44:56.175Z,21.10
2018-02-04T11:47:24.462Z,17.57
2018-02-04T11:49:52.724Z,24.00
2018-02-04T11:52:21.043Z,22.63
2018-02-04T11:54:50.078Z,23.53
2018-02-04T11:57:19.673Z,14.03
2018-02-04T11:59:48.729Z,18.17
2018-02-04T12:02:17.015Z,23.37
2018-02-04T12:04:46.073Z,22.50
2018-02-04T12:07:15.739Z,16.93
2018-02-04T12:09:45.570Z,18.73
2018-02-04T12:12:14.540Z,17.30
2018-02-04T12:14:43.595Z,21.17
2018-02-04T12:17:11.857Z,24.60
2018-02-04T12:19:40.133Z,16.47
2018-02-04T12:22:11.790Z,20.20
2018-02-04T12:24:40.081Z,19.73
2018-02-04T12:27:09.265Z,17.13
2018-02-04T12:29:37.856Z,17.93
2018-02-04T12:32:06.147Z,16.73
2018-02-04T12:34:35.195Z,25.13
2018-02-04T12:37:03.784Z,23.70
2018-02-04T12:39:33.498Z,20.50
2018-02-04T12:42:01.790Z,16.10
2018-02-04T12:44:30.113Z,28.13
2018-02-04T12:46:59.949Z,28.00
2018-02-04T12:49:28.985Z,27.73
2018-02-04T12:51:57.464Z,19.40
2018-02-04T12:54:25.745Z,29.17
2018-02-04T12:56:54.019Z,26.70
2018-02-04T12:59:26.227Z,23.70
2018-02-04T13:01:54.513Z,21.17
2018-02-04T13:04:22.781Z,21.97
2018-02-04T13:06:51.081Z,22.50
2018-02-04T13:09:19.359Z,32.30
2018-02-04T13:11:48.405Z,20.07
2018-02-04T13:14:17.656Z,23.77
2018-02-04T13:16:45.944Z,22.00
2018-02-04T13:19:14.235Z,26.43
2018-02-04T13:21:43.182Z,21.30
2018-02-04T13:24:11.676Z,23.30
2018-02-04T13:26:41.543Z,18.57
2018-02-04T13:29:10.923Z,22.53
2018-02-04T13:31:39.190Z,24.37
2018-02-04T13:34:07.469Z,20.63
2018-02-04T13:36:38.929Z,20.00
2018-02-04T13:39:07.908Z,15.30
2018-02-04T13:41:37.615Z,22.30
2018-02-04T13:44:05.907Z,23.10
2018-02-04T13:46:34.208Z,15.07
2018-02-04T13:49:02.471Z,32.37
2018-02-04T13:51:30.958Z,21.27
2018-02-04T13:54:00.003Z,18.63
2018-02-04T13:56:28.262Z,22.73
2018-02-04T13:58:56.561Z,25.80
2018-02-04T14:01:25.845Z,19.57
2018-02-04T14:03:54.832Z,19.90
2018-02-04T14:06:23.130Z,17.90
2018-02-04T14:08:51.391Z,18.17
2018-02-04T14:11:19.662Z,20.27
2018-02-04T14:13:50.140Z,17.67
2018-02-04T14:16:19.132Z,22.53
2018-02-04T14:18:47.392Z,17.40
2018-02-04T14:21:15.873Z,18.40
2018-02-04T14:23:44.912Z,15.93
2018-02-04T14:26:16.441Z,15.20
2018-02-04T14:28:44.701Z,16.90
2018-02-04T14:31:12.972Z,20.90
2018-02-04T14:33:41.571Z,17.97
2018-02-04T14:36:09.933Z,17.30
2018-02-04T14:38:38.210Z,14.67
2018-02-04T14:41:06.501Z,18.27
2018-02-04T14:43:35.929Z,19.13
2018-02-04T14:46:05.146Z,19.77
2018-02-04T14:48:33.613Z,15.90
2018-02-04T14:51:02.661Z,14.77
2018-02-04T14:53:31.648Z,16.47
2018-02-04T14:56:00.124Z,19.37
2018-02-04T14:58:28.386Z,11.83
2018-02-04T15:00:56.646Z,14.40
2018-02-04T15:03:26.720Z,19.60
2018-02-04T15:05:55.022Z,17.37
2018-02-04T15:08:23.308Z,21.20
2018-02-04T15:10:52.368Z,19.90
2018-02-04T15:13:20.716Z,21.17
2018-02-04T15:15:48.980Z,21.90
2018-02-04T15:18:18.228Z,24.00
2018-02-04T15:20:46.498Z,16.43
2018-02-04T15:23:14.770Z,17.87
2018-02-04T15:25:43.067Z,17.60
2018-02-04T15:28:13.838Z,19.43
2018-02-04T15:30:42.103Z,17.70
2018-02-04T15:33:10.641Z,19.33
2018-02-04T15:35:38.913Z,20.93
2018-02-04T15:38:07.180Z,28.00
2018-02-04T15:40:35.715Z,21.10
2018-02-04T15:43:05.460Z,18.60
2018-02-04T15:45:33.990Z,23.97
2018-02-04T15:48:02.327Z,17.97
2018-02-04T15:50:31.380Z,17.67
2018-02-04T15:53:01.926Z,21.90
2018-02-04T15:55:30.681Z,21.50
2018-02-04T15:57:59.730Z,18.30
2018-02-04T16:00:28.030Z,28.27
2018-02-04T16:02:56.612Z,18.60
2018-02-04T16:05:29.149Z,16.17
2018-02-04T16:07:58.269Z,18.47
2018-02-04T16:10:26.534Z,15.63
2018-02-04T16:12:54.841Z,24.77
2018-02-04T16:15:23.430Z,19.23
2018-02-04T16:17:53.996Z,20.23
2018-02-04T16:20:22.270Z,15.40
2018-02-04T16:22:50.565Z,14.50
2018-02-04T16:25:18.843Z,17.70
2018-02-04T16:27:47.115Z,21.70
2018-02-04T16:30:16.421Z,14.47
2018-02-04T16:32:44.680Z,18.70
2018-02-04T16:35:12.952Z,26.67
2018-02-04T16:37:41.390Z,13.27
2018-02-04T16:40:09.649Z,19.90
2018-02-04T16:42:38.725Z,18.80
2018-02-04T16:45:09.399Z,12.87
2018-02-04T16:47:38.532Z,16.47
2018-02-04T16:50:06.809Z,16.57
2018-02-04T16:52:35.122Z,15.90
2018-02-04T16:55:04.182Z,14.93
2018-02-04T16:57:32.465Z,17.93
2018-02-04T17:00:00.989Z,18.30
2018-02-04T17:02:29.268Z,19.57
2018-02-04T17:04:57.596Z,22.90
2018-02-04T17:07:28.991Z,18.27
2018-02-04T17:09:57.267Z,14.60
2018-02-04T17:12:25.640Z,19.40
2018-02-04T17:14:54.069Z,16.93
2018-02-04T17:17:22.334Z,16.07
2018-02-04T17:19:51.489Z,19.83
2018-02-04T17:22:19.768Z,16.80
2018-02-04T17:24:49.064Z,13.73
2018-02-04T17:27:17.349Z,16.73
2018-02-04T17:29:46.044Z,17.50
2018-02-04T17:32:16.265Z,14.47
2018-02-04T17:34:44.563Z,13.80
2018-02-04T17:37:13.626Z,17.07
2018-02-04T17:39:41.898Z,9.87
2018-02-04T17:42:10.213Z,11.77
2018-02-04T17:44:39.694Z,18.90
2018-02-04T17:47:07.976Z,15.83
2018-02-04T17:49:36.742Z,17.90
2018-02-04T17:52:05.055Z,21.00
2018-02-04T17:54:33.320Z,16.50
2018-02-04T17:57:04.595Z,24.40
2018-02-04T17:59:34.478Z,17.60
2018-02-04T18:02:02.774Z,15.00
2018-02-04T18:04:31.807Z,19.67
2018-02-04T18:07:00.377Z,20.17
2018-02-04T18:09:30.323Z,18.60
2018-02-04T18:11:58.619Z,18.17
2018-02-04T18:14:27.099Z,17.87
2018-02-04T18:16:55.375Z,20.37
2018-02-04T18:19:23.673Z,16.73
2018-02-04T18:21:52.139Z,14.60
2018-02-04T18:24:20.410Z,21.77
2018-02-04T18:26:48.669Z,18.40
2018-02-04T18:29:17.272Z,16.97
2018-02-04T18:31:45.548Z,14.63
2018-02-04T18:34:17.065Z,22.23
2018-02-04T18:36:45.359Z,22.90
2018-02-04T18:39:13.619Z,19.53
2018-02-04T18:41:41.889Z,16.60
2018-02-04T18:44:10.413Z,18.90
2018-02-04T18:46:38.685Z,23.27
2018-02-04T18:49:06.958Z,15.07
2018-02-04T18:51:36.057Z,15.33
2018-02-04T18:54:04.312Z,14.03
2018-02-04T18:56:32.596Z,13.47
2018-02-04T18:59:04.057Z,15.47
2018-02-04T19:01:32.325Z,11.27
2018-02-04T19:04:00.618Z,10.80
2018-02-04T19:06:30.137Z,19.00
2018-02-04T19:08:59.191Z,13.40
2018-02-04T19:11:30.613Z,17.03
2018-02-04T19:13:59.136Z,12.77
2018-02-04T19:16:27.422Z,18.23
2018-02-04T19:18:55.702Z,19.63
2018-02-04T19:21:24.328Z,14.57
2018-02-04T19:23:52.598Z,14.43
2018-02-04T19:26:20.868Z,24.50
2018-02-04T19:28:50.062Z,13.57
2018-02-04T19:31:19.099Z,14.20
2018-02-04T19:33:47.401Z,16.13
2018-02-04T19:36:17.074Z,21.20
2018-02-04T19:38:45.327Z,14.57
2018-02-04T19:41:13.619Z,26.33
2018-02-04T19:43:41.894Z,14.50
2018-02-04T19:46:10.932Z,13.60
2018-02-04T19:48:39.204Z,20.43
2018-02-04T19:51:07.645Z,16.60
2018-02-04T19:53:36.285Z,16.73
2018-02-04T19:56:04.600Z,18.00
2018-02-04T19:58:33.048Z,19.90
2018-02-04T20:01:02.116Z,12.80
2018-02-04T20:03:30.392Z,17.37
2018-02-04T20:05:58.708Z,15.57
2018-02-04T20:08:27.745Z,15.10
2018-02-04T20:10:56.017Z,21.60
2018-02-04T20:13:25.381Z,20.73
2018-02-04T20:15:54.410Z,14.63
2018-02-04T20:18:22.679Z,14.77
2018-02-04T20:20:51.080Z,13.27
2018-02-04T20:23:19.342Z,11.00
2018-02-04T20:25:49.114Z,11.90
2018-02-04T20:28:18.341Z,13.63
2018-02-04T20:30:46.605Z,17.83
2018-02-04T20:33:20.879Z,14.43
2018-02-04T20:35:49.166Z,15.30
2018-02-04T20:38:20.075Z,13.93
2018-02-04T20:40:48.463Z,13.93
2018-02-04T20:43:16.749Z,12.13
2018-02-04T20:45:45.019Z,20.47
2018-02-04T20:48:13.512Z,15.97
2018-02-04T20:50:42.585Z,15.60
2018-02-04T20:53:10.869Z,19.67
2018-02-04T20:55:39.790Z,16.60
2018-02-04T20:58:08.821Z,19.13
2018-02-04T21:00:37.129Z,16.33
2018-02-04T21:03:06.993Z,20.33
2018-02-04T21:05:35.273Z,16.43
2018-02-04T21:08:03.559Z,22.83
2018-02-04T21:10:32.073Z,21.30
2018-02-04T21:13:00.353Z,14.07
2018-02-04T21:15:31.876Z,21.97
2018-02-04T21:18:00.423Z,13.93
2018-02-04T21:20:29.457Z,17.43
2018-02-04T21:22:57.775Z,15.13
2018-02-04T21:25:26.067Z,16.00
2018-02-04T21:27:55.098Z,20.10
2018-02-04T21:30:23.364Z,21.77
2018-02-04T21:32:52.125Z,23.70
2018-02-04T21:35:21.170Z,21.60
2018-02-04T21:37:49.439Z,18.43
2018-02-04T21:40:21.009Z,16.00
2018-02-04T21:42:49.303Z,19.20
2018-02-04T21:45:17.575Z,15.70
2018-02-04T21:47:45.862Z,24.23
2018-02-04T21:50:14.143Z,10.80
2018-02-04T21:52:43.172Z,18.00
2018-02-04T21:55:11.473Z,12.90
2018-02-04T21:57:41.461Z,11.17
2018-02-04T22:00:09.750Z,17.80
2018-02-04T22:02:41.345Z,19.90
2018-02-04T22:05:13.779Z,16.03
2018-02-04T22:07:42.496Z,15.97
2018-02-04T22:10:10.844Z,19.90
2018-02-04T22:12:39.555Z,17.27
2018-02-04T22:15:07.842Z,10.63
2018-02-04T22:17:36.192Z,14.17
2018-02-04T22:20:08.211Z,14.27
2018-02-04T22:22:37.244Z,14.17
2018-02-04T22:25:06.068Z,13.77
2018-02-04T22:27:34.349Z,13.20
2018-02-04T22:30:09.787Z,16.20
2018-02-04T22:32:38.946Z,21.43
2018-02-04T22:35:07.712Z,13.20
2018-02-04T22:37:36.728Z,13.47
2018-02-04T22:40:05.007Z,11.40
2018-02-04T22:42:33.520Z,23.07
2018-02-04T22:45:01.889Z,15.17
2018-02-04T22:47:30.140Z,14.73
2018-02-04T22:49:58.411Z,13.70
2018-02-04T22:52:26.824Z,11.03
2018-02-04T22:54:55.320Z,16.13
2018-02-04T22:57:23.657Z,19.97
2018-02-04T22:59:51.931Z,13.13
2018-02-04T23:02:20.208Z,26.07
2018-02-04T23:04:48.576Z,11.87
2018-02-04T23:07:16.839Z,10.70
2018-02-04T23:09:45.254Z,11.40
2018-02-04T23:12:13.634Z,15.43
2018-02-04T23:14:41.915Z,11.57
2018-02-04T23:17:10.233Z,11.87
2018-02-04T23:19:38.498Z,17.60
2018-02-04T23:22:06.844Z,14.30
2018-02-04T23:24:35.152Z,15.13
2018-02-04T23:27:03.523Z,19.30
2018-02-04T23:29:31.828Z,17.33
2018-02-04T23:32:00.854Z,16.50
2018-02-04T23:34:29.171Z,14.60
2018-02-04T23:36:57.446Z,16.00
2018-02-04T23:39:25.718Z,16.60
2018-02-04T23:41:54.061Z,23.10
2018-02-04T23:44:22.338Z,14.50
2018-02-04T23:46:50.753Z,20.07
2018-02-04T23:49:19.016Z,12.57
2018-02-04T23:51:48.097Z,19.63
2018-02-04T23:54:16.363Z,17.13
2018-02-04T23:56:44.669Z,20.90
2018-02-04T23:59:12.942Z,18.47
